Molena, Georgia
Current Conditions -  °F | °C
As of 12:35 PM on Sunday 23 Nov 2014 (Local Time) from KOPN Reporting Station
Light Rain Light Rain  
Wind Chill: 61°   Ceiling: 400
Heat Index: 61°   Visibility: 2.5mi
Dew Point: 59°   Wind: 9mph
Humidity: 94%   Direction: 120°ESE
Pressure: 29.86"   Gusts: NA
Location:  33.01°N, 84.5°W
Report Text: KOPN 231735Z AUTO 12008KT 2 1/2SM -RA OVC004 16/15 A2986 RMK AO2 LTG DSNT NW THRU NE
Loading
Personal Weather Stations






























Interactive Weather Map New forecast layout! Learn more

10-Day Weather Forecast

Advertisements
Track Severe Weather on mobile